Time;durP1;ratioP1;P1;durP2;ratioP2;P2;SDS_P1;SDS_P2;PMS_P1;PMS_P2;Temp;Humidity;BMP_temperature;BMP_pressure;BME280_temperature;BME280_humidity;BME280_pressure;Samples;Min_cycle;Max_cycle;Signal;HPM_P1;HPM_P2
2020/12/08 00:02:21;;;;;;;10.80;9.80;;;;;;;4.99;75.91;100182.91;5018363;28;20179;-72
2020/12/08 00:04:46;;;;;;;12.20;11.10;;;;;;;4.99;75.46;100180.34;5019223;28;20213;-74
2020/12/08 00:07:11;;;;;;;11.43;10.33;;;;;;;4.89;77.00;100187.00;5019927;28;20595;-72
2020/12/08 00:09:37;;;;;;;11.03;9.97;;;;;;;4.71;76.15;100183.16;5018528;28;20266;-72
2020/12/08 00:12:03;;;;;;;10.67;9.60;;;;;;;4.76;77.24;100185.81;5019768;28;20186;-71
2020/12/08 00:14:29;;;;;;;10.63;9.63;;;;;;;4.93;76.49;100186.25;5020015;28;20175;-73
2020/12/08 00:16:54;;;;;;;10.87;9.80;;;;;;;4.65;77.33;100185.56;5019637;28;20433;-72
2020/12/08 00:19:19;;;;;;;10.97;9.87;;;;;;;4.83;76.39;100187.75;5019826;28;20237;-74
2020/12/08 00:21:45;;;;;;;13.10;10.20;;;;;;;4.87;76.40;100191.25;5019952;28;20189;-72
2020/12/08 00:24:14;;;;;;;10.83;9.83;;;;;;;4.96;76.43;100182.88;5019149;28;20227;-74
2020/12/08 00:26:40;;;;;;;11.23;10.13;;;;;;;5.03;75.87;100177.00;5019371;28;20787;-73
2020/12/08 00:29:07;;;;;;;11.10;10.00;;;;;;;4.98;76.41;100179.47;5019672;28;20504;-74
2020/12/08 00:31:32;;;;;;;11.57;10.47;;;;;;;5.00;75.66;100179.50;5019360;28;20828;-74
2020/12/08 00:33:58;;;;;;;10.60;9.60;;;;;;;4.99;76.64;100177.75;5019352;28;20450;-73
2020/12/08 00:36:24;;;;;;;10.80;9.70;;;;;;;4.84;75.92;100180.84;5019599;28;20488;-73
2020/12/08 00:38:50;;;;;;;10.30;9.30;;;;;;;4.99;76.18;100176.06;5018803;28;20197;-70
2020/12/08 00:41:19;;;;;;;11.47;10.37;;;;;;;4.97;75.51;100175.13;5018833;28;20417;-71
2020/12/08 00:43:45;;;;;;;10.37;9.40;;;;;;;4.99;75.03;100176.06;5019154;28;20212;-70
2020/12/08 00:46:11;;;;;;;10.50;9.50;;;;;;;4.88;76.26;100175.81;5018752;28;20546;-71
2020/12/08 00:48:37;;;;;;;9.63;8.83;;;;;;;4.80;76.13;100174.72;5018756;28;20488;-71
2020/12/08 00:51:03;;;;;;;10.93;9.60;;;;;;;4.67;76.24;100175.31;5019235;28;20679;-70
2020/12/08 00:53:28;;;;;;;10.30;9.40;;;;;;;4.74;76.67;100182.34;5018756;28;20437;-71
2020/12/08 00:55:53;;;;;;;10.30;9.27;;;;;;;4.81;75.59;100178.22;5018767;28;20257;-71
2020/12/08 00:58:18;;;;;;;11.43;10.33;;;;;;;4.76;76.47;100177.22;5019008;28;20450;-71
2020/12/08 01:00:44;;;;;;;11.43;10.43;;;;;;;4.84;76.84;100186.91;5017885;28;20559;-70
2020/12/08 01:03:09;;;;;;;11.20;10.20;;;;;;;4.86;76.25;100176.63;5018336;28;20194;-72
2020/12/08 01:05:35;;;;;;;11.07;10.07;;;;;;;4.85;76.63;100187.78;5018619;28;20253;-70
2020/12/08 01:08:00;;;;;;;11.70;10.60;;;;;;;4.87;76.96;100184.41;5018387;28;20499;-71
2020/12/08 01:10:25;;;;;;;12.17;11.00;;;;;;;4.97;75.98;100182.88;5018247;28;20453;-72
2020/12/08 01:12:50;;;;;;;10.60;9.50;;;;;;;4.94;76.70;100174.19;5018731;28;20198;-71
2020/12/08 01:15:16;;;;;;;11.60;10.50;;;;;;;5.10;76.03;100178.00;5018378;28;20186;-72
2020/12/08 01:17:41;;;;;;;12.10;10.23;;;;;;;4.97;76.29;100188.06;5018232;28;20265;-69
2020/12/08 01:20:06;;;;;;;12.40;11.10;;;;;;;4.88;75.95;100191.31;5018548;28;20445;-72
2020/12/08 01:22:32;;;;;;;11.20;10.10;;;;;;;4.95;75.35;100182.00;5018291;28;20190;-73
2020/12/08 01:24:57;;;;;;;11.17;10.17;;;;;;;4.79;76.53;100188.50;5018091;28;20508;-72
2020/12/08 01:27:22;;;;;;;10.80;9.80;;;;;;;4.86;76.11;100190.38;5018712;28;20182;-74
2020/12/08 01:29:47;;;;;;;11.13;10.03;;;;;;;4.91;76.31;100193.06;5018226;28;20190;-73
2020/12/08 01:32:13;;;;;;;11.40;10.30;;;;;;;4.95;76.23;100196.59;5018028;28;20179;-72
2020/12/08 01:34:38;;;;;;;11.20;10.10;;;;;;;4.95;75.90;100197.50;5018340;28;20206;-74
2020/12/08 01:37:04;;;;;;;11.57;10.47;;;;;;;5.04;75.22;100197.69;5017862;28;20237;-71
2020/12/08 01:39:29;;;;;;;11.10;10.10;;;;;;;4.90;74.89;100191.34;5017740;28;20451;-72
2020/12/08 01:41:56;;;;;;;12.73;11.53;;;;;;;4.93;74.66;100186.25;5018356;28;20170;-72
2020/12/08 01:44:22;;;;;;;12.60;11.40;;;;;;;4.95;75.00;100184.59;5017878;28;20541;-72
2020/12/08 01:46:47;;;;;;;11.77;10.57;;;;;;;4.81;74.78;100186.81;5017657;28;20481;-70
2020/12/08 01:49:12;;;;;;;12.10;11.00;;;;;;;4.89;74.51;100187.00;5017891;28;20818;-71
2020/12/08 01:51:38;;;;;;;11.90;10.80;;;;;;;4.79;76.48;100185.03;5017528;28;20179;-71
2020/12/08 01:54:03;;;;;;;12.40;11.20;;;;;;;4.93;75.82;100183.66;5016781;28;20171;-72
2020/12/08 01:56:29;;;;;;;11.97;10.87;;;;;;;4.65;75.29;100184.69;5017780;28;20388;-70
2020/12/08 01:58:54;;;;;;;12.57;10.83;;;;;;;4.82;74.88;100191.16;5017663;28;20197;-74
2020/12/08 02:01:20;;;;;;;12.40;11.27;;;;;;;4.71;75.66;100187.44;5017398;28;20198;-71
2020/12/08 02:03:48;;;;;;;12.20;11.03;;;;;;;4.62;75.91;100190.66;5017885;28;20167;-71
2020/12/08 02:06:13;;;;;;;11.60;10.50;;;;;;;4.91;74.82;100179.28;5017281;28;20210;-71
2020/12/08 02:08:38;;;;;;;11.70;10.60;;;;;;;4.79;74.01;100190.19;5017437;28;20433;-71
2020/12/08 02:11:04;;;;;;;11.87;10.77;;;;;;;4.99;74.80;100185.50;5017714;28;20229;-72
2020/12/08 02:13:30;;;;;;;11.03;9.97;;;;;;;4.88;74.71;100193.00;5017132;28;20217;-72
2020/12/08 02:15:55;;;;;;;11.93;10.83;;;;;;;4.95;73.91;100188.84;5017156;28;20449;-71
2020/12/08 02:18:21;;;;;;;12.83;11.60;;;;;;;4.66;75.12;100194.19;5017415;28;20175;-70
2020/12/08 02:20:52;;;;;;;11.70;10.60;;;;;;;4.60;74.89;100184.59;5017054;28;20175;-71
2020/12/08 02:23:17;;;;;;;12.60;11.40;;;;;;;4.74;74.45;100186.66;5017043;28;20430;-79
2020/12/08 02:25:43;;;;;;;12.17;10.97;;;;;;;4.92;74.94;100189.66;5017291;28;20449;-72
2020/12/08 02:28:08;;;;;;;12.77;11.53;;;;;;;4.83;74.51;100197.19;5017019;28;20447;-71
2020/12/08 02:30:35;;;;;;;11.80;10.60;;;;;;;4.91;75.42;100197.38;5017119;28;20198;-72
2020/12/08 02:33:00;;;;;;;11.90;10.70;;;;;;;4.86;73.86;100199.84;5017316;28;20174;-71
2020/12/08 02:35:26;;;;;;;11.97;10.87;;;;;;;4.89;74.63;100200.78;5017024;28;20425;-75
2020/12/08 02:37:51;;;;;;;12.30;11.10;;;;;;;4.99;73.91;100196.72;5016140;28;20175;-70
2020/12/08 02:40:16;;;;;;;12.83;11.57;;;;;;;5.10;73.68;100194.41;5030840;28;20512;-74
2020/12/08 02:42:44;;;;;;;13.13;11.93;;;;;;;4.85;74.23;100192.94;5035743;28;20686;-71
2020/12/08 02:45:10;;;;;;;11.20;10.20;;;;;;;4.99;73.23;100193.25;5036431;28;20446;-71
2020/12/08 02:47:35;;;;;;;12.80;11.63;;;;;;;5.01;73.51;100192.47;5036772;28;20429;-71
2020/12/08 02:50:00;;;;;;;12.57;11.43;;;;;;;5.03;72.67;100190.81;5030198;28;20190;-72
2020/12/08 02:52:26;;;;;;;11.27;10.17;;;;;;;4.94;73.66;100197.44;5016817;28;20257;-70
2020/12/08 02:54:51;;;;;;;11.80;10.60;;;;;;;4.75;73.83;100196.13;5017137;28;20182;-72
2020/12/08 02:57:17;;;;;;;11.60;10.50;;;;;;;5.09;73.24;100191.75;5031941;28;20190;-72
2020/12/08 02:59:42;;;;;;;11.80;10.73;;;;;;;4.96;73.06;100200.94;5036249;28;20551;-71
2020/12/08 03:02:07;;;;;;;12.00;10.80;;;;;;;4.91;73.75;100197.38;5036715;28;20206;-74
2020/12/08 03:04:32;;;;;;;11.50;10.30;;;;;;;4.87;74.64;100199.88;5036214;28;20182;-71
2020/12/08 03:06:58;;;;;;;12.13;10.97;;;;;;;4.80;74.63;100197.97;5036468;28;20258;-73
2020/12/08 03:09:23;;;;;;;10.40;9.30;;;;;;;4.66;74.54;100192.47;5036603;28;20174;-72
2020/12/08 03:11:48;;;;;;;12.03;10.83;;;;;;;4.83;73.49;100194.59;5036292;28;20185;-72
2020/12/08 03:14:14;;;;;;;11.20;10.17;;;;;;;4.95;73.56;100200.09;5036238;28;20174;-72
2020/12/08 03:16:39;;;;;;;11.87;10.77;;;;;;;5.08;72.34;100190.03;5036721;28;20527;-71
2020/12/08 03:19:04;;;;;;;12.00;10.80;;;;;;;4.98;73.03;100200.16;5036110;28;20205;-74
2020/12/08 03:21:36;;;;;;;11.07;10.07;;;;;;;5.01;72.89;100197.63;5036202;28;20229;-72
2020/12/08 03:24:01;;;;;;;10.73;9.67;;;;;;;4.70;73.60;100196.03;5036290;28;20214;-71
2020/12/08 03:26:27;;;;;;;11.43;10.33;;;;;;;4.84;73.52;100196.34;5036197;28;20464;-75
2020/12/08 03:28:53;;;;;;;10.73;9.83;;;;;;;4.76;73.83;100197.88;5036243;28;20268;-73
2020/12/08 03:31:18;;;;;;;10.70;9.70;;;;;;;4.82;72.86;100208.38;5036165;28;20253;-72
2020/12/08 03:33:44;;;;;;;10.70;9.70;;;;;;;4.85;74.66;100209.28;5036061;28;20178;-73
2020/12/08 03:36:12;;;;;;;10.80;9.80;;;;;;;4.66;73.69;100200.22;5036573;28;20296;-72
2020/12/08 03:38:37;;;;;;;11.80;10.70;;;;;;;4.91;73.48;100198.22;5036154;28;20190;-73
2020/12/08 03:41:03;;;;;;;11.40;10.37;;;;;;;4.90;73.72;100201.69;5035965;28;20421;-71
2020/12/08 03:43:28;;;;;;;11.90;10.90;;;;;;;4.95;73.64;100199.19;5035835;28;20225;-73
2020/12/08 03:45:53;;;;;;;11.53;10.53;;;;;;;4.93;74.02;100204.31;5039415;28;20280;-70
2020/12/08 03:48:19;;;;;;;12.60;11.37;;;;;;;4.99;73.33;100198.44;5039354;28;20521;-72
2020/12/08 03:50:44;;;;;;;11.93;10.73;;;;;;;4.78;73.69;100203.97;5040027;28;20181;-71
2020/12/08 03:53:09;;;;;;;15.37;13.67;;;;;;;9.77;86.82;100191.22;5039524;28;20182;-70
2020/12/08 03:55:35;;;;;;;12.17;11.10;;;;;;;8.34;66.31;100191.06;5034448;28;20504;-71
2020/12/08 03:58:00;;;;;;;11.10;10.10;;;;;;;6.42;68.72;100199.69;5020078;28;20206;-73
2020/12/08 04:00:25;;;;;;;10.53;9.53;;;;;;;5.54;70.19;100206.56;5019439;28;20198;-72
2020/12/08 04:02:50;;;;;;;11.90;10.70;;;;;;;5.46;71.83;100208.09;5019553;28;20565;-73
2020/12/08 04:05:16;;;;;;;12.03;10.77;;;;;;;5.39;71.35;100214.84;5019880;28;20206;-72
2020/12/08 04:07:41;;;;;;;12.47;11.33;;;;;;;5.02;72.80;100224.31;5019632;28;20186;-72
2020/12/08 04:10:06;;;;;;;11.37;10.27;;;;;;;5.05;73.37;100220.09;5019449;28;20506;-73
2020/12/08 04:12:32;;;;;;;13.30;12.00;;;;;;;4.83;73.66;100217.84;5019835;28;20175;-73
2020/12/08 04:14:57;;;;;;;11.27;10.17;;;;;;;4.87;73.28;100217.97;5019432;28;20170;-72
2020/12/08 04:17:22;;;;;;;13.23;11.60;;;;;;;4.72;73.50;100218.47;5019283;28;20182;-72
2020/12/08 04:19:48;;;;;;;11.67;10.57;;;;;;;4.77;74.80;100215.97;5019530;28;20177;-73
2020/12/08 04:22:13;;;;;;;11.60;10.50;;;;;;;4.86;73.24;100220.53;5019327;28;20214;-73
2020/12/08 04:24:39;;;;;;;10.97;10.07;;;;;;;4.70;74.69;100214.09;5019079;28;20221;-73
2020/12/08 04:27:04;;;;;;;11.00;10.00;;;;;;;4.63;74.11;100213.06;5019614;28;20261;-72
2020/12/08 04:29:29;;;;;;;11.70;10.50;;;;;;;4.66;75.20;100217.44;5019160;28;20183;-73
2020/12/08 04:31:55;;;;;;;11.10;10.10;;;;;;;4.71;74.55;100221.88;5018318;28;20183;-73
2020/12/08 04:34:20;;;;;;;11.20;10.20;;;;;;;4.66;73.62;100218.31;5019368;28;20261;-72
2020/12/08 04:36:45;;;;;;;12.27;11.17;;;;;;;4.66;74.99;100218.31;5019041;28;20237;-73
2020/12/08 04:39:11;;;;;;;11.90;10.90;;;;;;;4.60;74.21;100209.53;5018904;28;20205;-72
2020/12/08 04:41:36;;;;;;;13.10;11.30;;;;;;;4.55;75.02;100215.44;5019379;28;20171;-73
2020/12/08 04:44:02;;;;;;;11.17;10.13;;;;;;;4.66;74.60;100220.88;5018872;28;20499;-74
2020/12/08 04:46:27;;;;;;;12.07;10.77;;;;;;;4.61;74.88;100230.22;5018695;28;20198;-73
2020/12/08 04:48:53;;;;;;;12.27;11.07;;;;;;;4.61;75.87;100226.78;5018953;28;20198;-72
2020/12/08 04:51:18;;;;;;;12.47;11.33;;;;;;;4.68;74.93;100231.25;5018773;28;20179;-73
2020/12/08 04:53:46;;;;;;;13.20;11.90;;;;;;;4.65;74.94;100231.19;5018771;28;20511;-72
2020/12/08 04:56:11;;;;;;;12.73;11.53;;;;;;;4.33;75.61;100226.94;5018632;28;20262;-73
2020/12/08 04:58:36;;;;;;;14.00;12.60;;;;;;;4.67;75.62;100230.38;5018540;28;20764;-73
2020/12/08 05:01:02;;;;;;;13.67;12.33;;;;;;;4.74;74.86;100231.41;5018405;28;20198;-74
2020/12/08 05:03:28;;;;;;;13.87;12.57;;;;;;;4.64;75.38;100238.06;5018945;28;20167;-73
2020/12/08 05:05:53;;;;;;;12.53;11.33;;;;;;;4.63;75.42;100233.72;5018420;28;20199;-73
2020/12/08 05:08:19;;;;;;;12.73;11.57;;;;;;;4.46;76.59;100235.00;5018287;28;20450;-71
2020/12/08 05:10:46;;;;;;;12.27;11.10;;;;;;;4.61;75.72;100227.63;5018840;28;20175;-72
2020/12/08 05:13:25;;;;;;;13.77;12.37;;;;;;;4.42;76.24;100234.03;5017594;28;20197;-73
2020/12/08 05:16:01;;;;;;;13.10;11.80;;;;;;;4.39;77.22;100244.28;5018289;28;20425;-74
2020/12/08 05:18:26;;;;;;;17.73;14.20;;;;;;;4.68;75.94;100236.41;5017378;28;20424;-74
2020/12/08 05:20:51;;;;;;;15.13;13.63;;;;;;;4.61;76.53;100240.53;5018377;28;20808;-74
2020/12/08 05:23:17;;;;;;;14.53;13.10;;;;;;;4.43;76.31;100230.63;5018093;28;20825;-73
2020/12/08 05:25:45;;;;;;;15.73;14.13;;;;;;;4.62;76.08;100233.69;5018218;28;20222;-74
2020/12/08 05:28:17;;;;;;;15.53;13.93;;;;;;;4.57;76.14;100237.84;5018409;28;20170;-73
2020/12/08 05:30:45;;;;;;;16.23;14.53;;;;;;;4.74;75.25;100240.88;5018125;28;20780;-74
2020/12/08 05:33:15;;;;;;;17.57;13.73;;;;;;;4.48;76.22;100238.47;5017983;28;20426;-73
2020/12/08 05:35:40;;;;;;;15.40;13.80;;;;;;;4.28;76.47;100236.25;5017927;28;20430;-73
2020/12/08 05:38:08;;;;;;;14.93;13.40;;;;;;;4.59;76.96;100236.16;5017100;28;20830;-73
2020/12/08 05:40:35;;;;;;;15.57;13.87;;;;;;;4.53;76.92;100234.31;5018100;28;20262;-73
2020/12/08 05:43:01;;;;;;;16.40;14.80;;;;;;;4.71;75.85;100224.47;5017698;28;20417;-72
2020/12/08 05:45:27;;;;;;;16.27;14.57;;;;;;;4.36;76.72;100224.41;5016859;28;20553;-73
2020/12/08 05:47:56;;;;;;;16.20;14.50;;;;;;;4.18;78.09;100224.81;5017935;28;20480;-73
2020/12/08 05:50:23;;;;;;;16.00;14.40;;;;;;;4.29;78.78;100221.63;5017470;28;20477;-74
2020/12/08 05:53:00;;;;;;;16.33;14.63;;;;;;;4.35;77.16;100226.97;5016895;28;20839;-73
2020/12/08 05:55:28;;;;;;;16.60;14.80;;;;;;;4.49;76.41;100232.47;5017540;28;20708;-73
2020/12/08 05:57:53;;;;;;;15.67;14.07;;;;;;;4.30;77.10;100228.53;5017487;28;20410;-73
2020/12/08 06:00:20;;;;;;;17.53;14.17;;;;;;;4.21;76.61;100235.22;5016350;28;20686;-73
2020/12/08 06:02:46;;;;;;;17.40;14.90;;;;;;;4.50;77.28;100235.09;5017452;28;20179;-73
2020/12/08 06:05:11;;;;;;;17.93;16.03;;;;;;;4.57;76.95;100238.72;5017630;28;20699;-73
2020/12/08 06:07:36;;;;;;;16.50;14.53;;;;;;;4.54;76.85;100238.66;5016781;28;20262;-73
2020/12/08 06:10:09;;;;;;;17.20;15.30;;;;;;;4.52;76.16;100245.50;5017228;28;20447;-73
2020/12/08 06:12:37;;;;;;;16.63;15.03;;;;;;;4.53;76.63;100248.09;5017637;28;20575;-73
2020/12/08 06:15:24;;;;;;;19.33;15.37;;;;;;;4.37;76.80;100259.72;5017247;28;20413;-73
2020/12/08 06:17:49;;;;;;;17.20;15.40;;;;;;;4.51;77.67;100254.06;5017415;28;20495;-73
2020/12/08 06:20:15;;;;;;;16.43;14.70;;;;;;;4.58;77.94;100265.44;5017283;28;20410;-73
2020/12/08 06:22:40;;;;;;;16.57;14.87;;;;;;;4.44;76.74;100258.19;5017301;28;20202;-72
2020/12/08 06:25:05;;;;;;;19.43;15.93;;;;;;;4.33;77.74;100250.16;5017281;28;20229;-73
2020/12/08 06:27:32;;;;;;;15.30;13.70;;;;;;;4.54;77.79;100259.28;5017251;28;20492;-74
2020/12/08 06:29:58;;;;;;;17.57;14.47;;;;;;;4.55;76.75;100256.75;5017588;28;20422;-73
2020/12/08 06:32:30;;;;;;;17.87;15.97;;;;;;;4.50;76.83;100260.06;5017334;28;20841;-73
2020/12/08 06:35:06;;;;;;;16.67;15.00;;;;;;;4.52;77.30;100263.56;5017218;28;20258;-73
2020/12/08 06:37:31;;;;;;;17.90;15.70;;;;;;;4.34;77.30;100258.75;5017356;28;20413;-73
2020/12/08 06:40:10;;;;;;;18.33;16.40;;;;;;;4.39;76.99;100263.19;5017078;28;20437;-73
2020/12/08 06:42:35;;;;;;;17.00;15.20;;;;;;;4.34;76.96;100266.50;5017126;28;20229;-74
2020/12/08 06:45:12;;;;;;;17.23;15.43;;;;;;;4.41;77.37;100273.59;5017088;28;20461;-74
2020/12/08 06:47:38;;;;;;;16.83;15.03;;;;;;;4.38;77.05;100269.22;5017217;28;20193;-73
2020/12/08 06:50:05;;;;;;;18.47;14.40;;;;;;;4.41;76.66;100273.59;5017194;28;20426;-72
2020/12/08 06:52:31;;;;;;;16.93;15.13;;;;;;;4.28;77.37;100268.94;5017149;28;20556;-73
2020/12/08 06:54:57;;;;;;;17.83;15.33;;;;;;;4.34;77.20;100267.41;5017153;28;20418;-73
2020/12/08 06:57:23;;;;;;;18.20;16.23;;;;;;;4.47;78.15;100265.13;5017510;28;20163;-72
2020/12/08 06:59:48;;;;;;;17.40;15.60;;;;;;;4.35;77.05;100269.13;5016886;28;20456;-72
2020/12/08 07:02:13;;;;;;;19.10;15.60;;;;;;;4.09;77.60;100270.13;5016892;28;20544;-73
2020/12/08 07:04:39;;;;;;;18.53;14.93;;;;;;;4.24;77.70;100278.28;5017132;28;20182;-72
2020/12/08 07:07:05;;;;;;;16.13;14.43;;;;;;;4.23;76.94;100276.53;5016991;28;20258;-72
2020/12/08 07:09:33;;;;;;;17.80;15.90;;;;;;;4.36;76.92;100283.78;5016848;28;20187;-73
2020/12/08 07:12:03;;;;;;;18.33;15.00;;;;;;;4.23;76.99;100273.94;5016587;28;20496;-72
2020/12/08 07:14:29;;;;;;;16.47;14.77;;;;;;;4.18;77.08;100276.41;5017009;28;20491;-73
2020/12/08 07:16:55;;;;;;;16.40;14.70;;;;;;;4.19;78.48;100283.31;5016887;28;20440;-74
2020/12/08 07:19:20;;;;;;;20.03;16.63;;;;;;;4.28;78.76;100282.69;5019309;28;20426;-74
2020/12/08 07:21:58;;;;;;;19.03;16.00;;;;;;;4.25;76.37;100292.94;5019982;28;20182;-73
2020/12/08 07:24:24;;;;;;;18.93;15.60;;;;;;;4.14;77.83;100302.06;5020418;28;20229;-72
2020/12/08 07:26:50;;;;;;;20.23;15.70;;;;;;;3.90;76.58;100305.69;5020664;28;20477;-73
2020/12/08 07:29:16;;;;;;;21.90;16.23;;;;;;;3.99;77.08;100310.22;5020650;28;20484;-72
2020/12/08 07:31:45;;;;;;;19.23;16.17;;;;;;;4.27;77.21;100306.75;5020868;28;20250;-72
2020/12/08 07:34:14;;;;;;;17.63;15.63;;;;;;;4.09;76.70;100303.66;5020397;28;20421;-73
2020/12/08 07:36:39;;;;;;;16.80;14.40;;;;;;;4.07;76.21;100302.72;5020468;28;20409;-73
2020/12/08 07:39:10;;;;;;;20.67;15.20;;;;;;;4.32;76.46;100305.16;5020824;28;20421;-74
2020/12/08 07:41:35;;;;;;;18.00;14.40;;;;;;;4.34;74.75;100300.94;5019566;28;20178;-74
2020/12/08 07:44:10;;;;;;;16.50;14.80;;;;;;;4.37;75.29;100298.44;5020327;28;20463;-73
2020/12/08 07:46:35;;;;;;;16.90;14.63;;;;;;;4.50;74.48;100298.78;5020024;28;20206;-72
2020/12/08 07:49:06;;;;;;;18.43;15.93;;;;;;;4.41;75.00;100303.69;5020033;28;20428;-73
2020/12/08 07:51:32;;;;;;;16.53;14.17;;;;;;;4.37;73.97;100297.53;5020548;28;20432;-74
2020/12/08 07:54:02;;;;;;;17.20;15.40;;;;;;;4.34;74.98;100293.19;5019977;28;20552;-73
2020/12/08 07:56:31;;;;;;;16.90;15.10;;;;;;;4.52;73.98;100303.16;5020020;28;20418;-73
2020/12/08 07:58:57;;;;;;;17.93;14.23;;;;;;;4.41;75.13;100298.50;5020207;28;20422;-73
2020/12/08 08:01:22;;;;;;;14.90;12.97;;;;;;;4.25;74.12;100292.03;5027049;28;20451;-72
2020/12/08 08:04:09;;;;;;;16.47;14.77;;;;;;;4.30;74.16;100286.22;5039257;28;20586;-74
2020/12/08 08:06:35;;;;;;;14.70;13.20;;;;;;;4.47;73.48;100293.53;5039547;28;20194;-74
2020/12/08 08:09:06;;;;;;;16.57;14.87;;;;;;;4.47;73.22;100293.53;5039599;28;20453;-74
2020/12/08 08:11:32;;;;;;;15.50;13.83;;;;;;;4.48;72.18;100295.25;5039485;28;20265;-74
2020/12/08 08:13:57;;;;;;;17.83;14.03;;;;;;;4.66;72.32;100300.91;5039578;28;20852;-74
2020/12/08 08:16:22;;;;;;;15.63;14.10;;;;;;;4.66;72.49;100290.59;5039493;28;20536;-73
2020/12/08 08:18:48;;;;;;;15.50;14.00;;;;;;;4.82;72.28;100291.88;5039075;28;20228;-74
2020/12/08 08:21:14;;;;;;;16.47;14.77;;;;;;;4.77;72.17;100295.19;5039034;28;20182;-73
2020/12/08 08:23:39;;;;;;;14.60;12.90;;;;;;;4.83;71.34;100291.03;5037578;28;20224;-73
2020/12/08 08:26:06;;;;;;;15.43;13.70;;;;;;;4.88;70.55;100292.03;5034000;28;20748;-74
2020/12/08 08:28:32;;;;;;;14.60;13.10;;;;;;;4.66;72.65;100306.09;5030160;28;20575;-74
2020/12/08 08:30:57;;;;;;;15.90;13.83;;;;;;;4.96;71.83;100283.59;5030156;28;20409;-74
2020/12/08 08:33:22;;;;;;;14.17;12.73;;;;;;;4.89;72.08;100287.75;5029436;28;20209;-73
2020/12/08 08:35:48;;;;;;;14.27;12.77;;;;;;;4.92;72.34;100292.13;5028269;28;20167;-74
2020/12/08 08:38:13;;;;;;;15.57;13.97;;;;;;;4.99;72.11;100299.16;5019307;28;20175;-74
2020/12/08 08:40:39;;;;;;;15.23;13.73;;;;;;;4.97;71.45;100290.53;5024786;28;20190;-74
2020/12/08 08:43:04;;;;;;;16.00;14.13;;;;;;;4.79;72.56;100299.56;5028681;28;20185;-74
2020/12/08 08:45:30;;;;;;;14.90;13.43;;;;;;;4.91;71.60;100291.22;5027997;28;20221;-74
2020/12/08 08:47:55;;;;;;;13.90;12.60;;;;;;;4.85;71.10;100288.50;5026753;28;20179;-74
2020/12/08 08:50:20;;;;;;;14.97;13.37;;;;;;;4.70;72.00;100291.56;5029659;28;20575;-74
2020/12/08 08:52:46;;;;;;;16.03;13.33;;;;;;;4.78;71.57;100300.38;5028051;28;20455;-74
2020/12/08 08:55:11;;;;;;;14.50;13.10;;;;;;;4.85;71.81;100304.84;5027899;28;20171;-74
2020/12/08 08:57:38;;;;;;;17.23;13.30;;;;;;;4.86;71.63;100303.16;5026889;28;20186;-73
2020/12/08 09:00:09;;;;;;;15.47;13.63;;;;;;;4.71;72.46;100299.34;5028099;28;20216;-73
2020/12/08 09:02:35;;;;;;;16.10;13.10;;;;;;;4.85;72.19;100306.56;5028438;28;20389;-75
2020/12/08 09:05:01;;;;;;;14.17;12.30;;;;;;;4.67;72.82;100304.41;5025925;28;20463;-74
2020/12/08 09:07:28;;;;;;;15.93;14.17;;;;;;;4.72;72.78;100306.25;5027295;28;20250;-74
2020/12/08 09:09:54;;;;;;;15.27;13.77;;;;;;;4.63;72.60;100302.56;5027372;28;20217;-74
2020/12/08 09:12:19;;;;;;;14.67;13.27;;;;;;;4.54;72.60;100300.59;5017961;28;20418;-73
2020/12/08 09:14:46;;;;;;;18.40;14.37;;;;;;;4.52;72.85;100299.69;5019419;28;20202;-71
2020/12/08 09:17:11;;;;;;;15.90;13.47;;;;;;;4.47;74.12;100301.28;5027599;28;20170;-73
2020/12/08 09:19:37;;;;;;;14.73;13.33;;;;;;;4.44;73.51;100308.91;5024989;28;20464;-73
2020/12/08 09:22:03;;;;;;;15.83;14.23;;;;;;;4.54;73.60;100306.63;5018626;28;20455;-73
2020/12/08 09:24:29;;;;;;;16.50;14.73;;;;;;;4.44;73.67;100308.91;5026123;28;20583;-73
2020/12/08 09:26:54;;;;;;;16.90;14.30;;;;;;;4.57;72.75;100302.38;5027496;28;20468;-74
2020/12/08 09:29:19;;;;;;;17.00;14.90;;;;;;;4.81;72.38;100310.78;5027305;28;20195;-72
2020/12/08 09:31:45;;;;;;;16.07;14.40;;;;;;;4.97;71.54;100308.59;5021132;28;20185;-74
2020/12/08 09:34:11;;;;;;;17.07;13.03;;;;;;;4.71;72.30;100321.72;5029561;28;20388;-72
2020/12/08 09:36:36;;;;;;;14.47;12.97;;;;;;;4.88;72.08;100323.03;5030508;28;20644;-73
2020/12/08 09:39:02;;;;;;;16.80;13.27;;;;;;;4.48;72.72;100318.50;5031681;28;20510;-73
2020/12/08 09:41:28;;;;;;;17.33;14.03;;;;;;;4.58;73.06;100317.91;5036931;28;20251;-73
2020/12/08 09:43:54;;;;;;;17.17;14.37;;;;;;;4.78;72.22;100320.19;5037255;28;20439;-70
2020/12/08 09:46:19;;;;;;;16.27;13.60;;;;;;;4.79;72.73;100311.56;5037372;28;20210;-70
2020/12/08 09:48:44;;;;;;;19.10;14.10;;;;;;;4.59;72.89;100314.50;5036341;28;20734;-72
2020/12/08 09:51:10;;;;;;;15.03;13.47;;;;;;;4.61;72.73;100315.41;5037181;28;20189;-72
2020/12/08 09:53:36;;;;;;;16.60;15.00;;;;;;;4.47;73.18;100319.34;5037076;28;20231;-71
2020/12/08 09:56:02;;;;;;;19.23;15.07;;;;;;;4.66;73.15;100319.00;5037488;28;20174;-72
2020/12/08 09:58:27;;;;;;;16.03;14.17;;;;;;;4.80;72.04;100324.50;5036723;28;20417;-73
2020/12/08 10:00:53;;;;;;;21.33;12.87;;;;;;;4.58;73.33;100319.63;5036964;28;20277;-73
2020/12/08 10:03:18;;;;;;;19.70;14.53;;;;;;;4.58;73.43;100315.34;5034595;28;20194;-72
2020/12/08 10:05:43;;;;;;;16.33;13.33;;;;;;;4.51;73.69;100319.47;5036787;28;20285;-73
2020/12/08 10:08:09;;;;;;;16.27;14.57;;;;;;;4.64;72.70;100312.94;5032055;28;20198;-71
2020/12/08 10:10:34;;;;;;;16.67;13.90;;;;;;;4.64;72.36;100309.47;5036181;28;20177;-70
2020/12/08 10:13:00;;;;;;;16.10;14.40;;;;;;;4.71;73.00;100311.38;5036874;28;20185;-73
2020/12/08 10:15:26;;;;;;;16.23;13.73;;;;;;;4.73;72.59;100312.28;5036678;28;20189;-72
2020/12/08 10:17:52;;;;;;;16.40;14.20;;;;;;;4.74;72.61;100308.03;5037431;28;20670;-72
2020/12/08 10:20:17;;;;;;;15.33;13.73;;;;;;;4.82;72.09;100303.94;5029673;28;20471;-71
2020/12/08 10:22:42;;;;;;;18.80;15.13;;;;;;;5.11;71.56;100309.81;5029796;28;20212;-71
2020/12/08 10:25:08;;;;;;;15.70;14.10;;;;;;;5.34;71.07;100310.38;5026750;28;20241;-71
2020/12/08 10:27:33;;;;;;;16.60;14.90;;;;;;;5.03;72.28;100317.38;5028433;28;20174;-72
2020/12/08 10:29:58;;;;;;;15.70;14.20;;;;;;;4.95;71.70;100316.31;5026517;28;20171;-71
2020/12/08 10:32:24;;;;;;;16.20;14.47;;;;;;;5.06;71.56;100312.28;5028880;28;20317;-71
2020/12/08 10:34:49;;;;;;;15.17;13.57;;;;;;;5.10;71.86;100320.09;5027765;28;20536;-72
2020/12/08 10:37:15;;;;;;;18.57;14.20;;;;;;;5.18;71.03;100310.84;5027271;28;20217;-72
2020/12/08 10:39:40;;;;;;;15.90;13.97;;;;;;;5.14;71.17;100309.91;5027815;28;20181;-72
2020/12/08 10:42:05;;;;;;;15.10;13.57;;;;;;;5.20;70.77;100314.34;5027174;28;20642;-70
2020/12/08 10:44:31;;;;;;;15.40;13.90;;;;;;;5.28;70.69;100318.00;5027336;28;20185;-72
2020/12/08 10:46:56;;;;;;;15.70;14.10;;;;;;;5.30;71.54;100320.59;5028910;28;20214;-72
2020/12/08 10:49:22;;;;;;;16.40;14.70;;;;;;;5.44;70.81;100326.09;5027673;28;20224;-71
2020/12/08 10:51:48;;;;;;;18.60;15.50;;;;;;;5.34;70.71;100317.25;5027070;28;20205;-70
2020/12/08 10:54:13;;;;;;;16.50;14.53;;;;;;;5.40;70.24;100322.59;5031050;28;20184;-70
2020/12/08 10:56:39;;;;;;;20.33;17.47;;;;;;;5.52;69.81;100315.13;5029297;28;20213;-71
2020/12/08 10:59:04;;;;;;;18.27;16.40;;;;;;;5.18;71.22;100321.16;5040486;28;20257;-71
2020/12/08 11:01:30;;;;;;;17.57;14.17;;;;;;;5.30;71.19;100320.59;5034369;28;20232;-75
2020/12/08 11:03:56;;;;;;;17.37;15.57;;;;;;;4.97;72.21;100322.38;5030884;28;20232;-70
2020/12/08 11:06:26;;;;;;;17.77;14.80;;;;;;;5.15;72.35;100318.53;5032726;28;20194;-71
2020/12/08 11:08:52;;;;;;;17.63;15.10;;;;;;;5.29;71.27;100319.75;5040105;28;20637;-71
2020/12/08 11:11:22;;;;;;;17.23;15.43;;;;;;;5.32;71.83;100317.22;5040425;28;20524;-75
2020/12/08 11:13:48;;;;;;;18.50;15.77;;;;;;;4.97;72.43;100318.94;5040515;28;20488;-71